Time;durP1;ratioP1;P1;durP2;ratioP2;P2;SDS_P1;SDS_P2;PMS_P1;PMS_P2;Temp;Humidity;BMP_temperature;BMP_pressure;BME280_temperature;BME280_humidity;BME280_pressure;Samples;Min_cycle;Max_cycle;Signal;HPM_P1;HPM_P2
2023/05/25 00:01:06;;;;;;;25.08;17.55;;;12.10;99.90;;;;;;5015732;28;20125;-60
2023/05/25 00:03:32;;;;;;;23.35;17.67;;;12.10;99.90;;;;;;5014235;28;20109;-61
2023/05/25 00:06:00;;;;;;;28.98;17.95;;;12.20;99.90;;;;;;5015647;28;20403;-60
2023/05/25 00:08:26;;;;;;;21.70;16.92;;;12.20;99.90;;;;;;5015671;28;20553;-61
2023/05/25 00:10:51;;;;;;;29.63;17.33;;;12.20;99.90;;;;;;5015362;28;20048;-61
2023/05/25 00:13:17;;;;;;;30.52;19.02;;;12.10;99.90;;;;;;5015425;28;20109;-61
2023/05/25 00:15:43;;;;;;;35.88;19.48;;;12.10;99.90;;;;;;5015298;28;20053;-61
2023/05/25 00:18:08;;;;;;;27.58;18.17;;;12.10;99.90;;;;;;5015337;28;20113;-61
2023/05/25 00:20:34;;;;;;;24.67;18.50;;;12.10;99.90;;;;;;5015448;28;20101;-61
2023/05/25 00:23:01;;;;;;;30.63;17.48;;;12.10;99.90;;;;;;5015200;28;20045;-61
2023/05/25 00:25:27;;;;;;;28.08;17.55;;;12.10;99.90;;;;;;5015254;28;20501;-61
2023/05/25 00:27:53;;;;;;;24.40;17.00;;;12.10;99.90;;;;;;5013825;28;20088;-61
2023/05/25 00:30:18;;;;;;;23.88;16.45;;;12.10;99.90;;;;;;5015235;28;20033;-61
2023/05/25 00:32:44;;;;;;;22.73;17.70;;;12.20;99.90;;;;;;5014960;28;20029;-61
2023/05/25 00:35:10;;;;;;;23.98;18.58;;;12.20;99.90;;;;;;5015202;28;20053;-61
2023/05/25 00:37:36;;;;;;;27.42;17.20;;;12.20;99.90;;;;;;5014859;28;20493;-61
2023/05/25 00:40:01;;;;;;;28.40;17.27;;;12.20;99.90;;;;;;5014823;28;20036;-61
2023/05/25 00:42:28;;;;;;;33.03;18.10;;;12.20;99.90;;;;;;5014830;28;20553;-61
2023/05/25 00:44:54;;;;;;;23.92;16.85;;;12.20;99.90;;;;;;5013476;28;20033;-61
2023/05/25 00:47:19;;;;;;;25.55;18.42;;;12.10;99.90;;;;;;5014847;28;20456;-61
2023/05/25 00:49:45;;;;;;;24.90;17.88;;;12.10;99.90;;;;;;5014650;28;20117;-61
2023/05/25 00:52:12;;;;;;;23.63;18.15;;;12.10;99.90;;;;;;5014704;28;20490;-61
2023/05/25 00:54:38;;;;;;;28.20;18.23;;;12.10;99.90;;;;;;5013461;28;20050;-61
2023/05/25 00:57:06;;;;;;;29.20;18.60;;;12.10;99.90;;;;;;5014538;28;20061;-61
2023/05/25 00:59:40;;;;;;;31.52;17.92;;;12.10;99.90;;;;;;5014371;28;20034;-61
2023/05/25 01:02:12;;;;;;;27.95;18.73;;;12.20;99.90;;;;;;5014641;28;20338;-61
2023/05/25 01:04:44;;;;;;;27.10;18.15;;;12.20;99.90;;;;;;5014585;28;20034;-60
2023/05/25 01:07:11;;;;;;;33.97;19.85;;;12.20;99.90;;;;;;5014382;28;20057;-61
2023/05/25 01:09:43;;;;;;;27.40;19.27;;;12.10;99.90;;;;;;5014565;28;20026;-61
2023/05/25 01:12:10;;;;;;;20.88;17.20;;;12.10;99.90;;;;;;5014278;28;20033;-61
2023/05/25 01:14:39;;;;;;;24.27;17.67;;;12.10;99.90;;;;;;5013025;28;20021;-61
2023/05/25 01:17:05;;;;;;;26.33;18.92;;;12.10;99.90;;;;;;5014238;28;20037;-61
2023/05/25 01:19:32;;;;;;;25.90;18.58;;;12.10;99.90;;;;;;5014156;28;20037;-61
2023/05/25 01:22:21;;;;;;;29.90;19.00;;;12.10;99.90;;;;;;5014088;28;20029;-60
2023/05/25 01:25:01;;;;;;;31.13;18.52;;;12.00;99.90;;;;;;5013955;28;20030;-61
2023/05/25 01:27:56;;;;;;;27.00;18.60;;;12.00;99.90;;;;;;5013895;28;20060;-61
2023/05/25 01:30:24;;;;;;;32.10;19.77;;;11.90;99.90;;;;;;4999746;28;20034;-61
2023/05/25 01:32:52;;;;;;;25.08;18.98;;;11.90;99.90;;;;;;5013840;28;20032;-60
2023/05/25 01:35:19;;;;;;;24.17;18.10;;;11.90;99.90;;;;;;5013753;28;20034;-61
2023/05/25 01:37:45;;;;;;;39.08;20.05;;;11.90;99.90;;;;;;5012256;28;20501;-61
2023/05/25 01:40:14;;;;;;;27.42;19.92;;;12.00;99.90;;;;;;5013869;28;20488;-62
2023/05/25 01:42:40;;;;;;;26.88;20.00;;;12.00;99.90;;;;;;5013952;28;20430;-61
2023/05/25 01:45:07;;;;;;;25.83;19.15;;;12.00;99.90;;;;;;5013599;28;20026;-61
2023/05/25 01:48:01;;;;;;;33.92;19.67;;;12.00;99.90;;;;;;5013547;28;20029;-60
2023/05/25 01:50:36;;;;;;;33.08;19.85;;;12.00;99.90;;;;;;5012512;28;20038;-60
2023/05/25 01:53:29;;;;;;;28.48;19.08;;;12.00;99.90;;;;;;5013604;28;20026;-61
2023/05/25 01:56:10;;;;;;;29.05;20.23;;;11.90;99.90;;;;;;5013386;28;20159;-61
2023/05/25 01:58:41;;;;;;;27.15;19.88;;;11.90;99.90;;;;;;5013444;28;20068;-60
2023/05/25 02:01:08;;;;;;;36.33;20.40;;;11.90;99.90;;;;;;5013537;28;20497;-61
2023/05/25 02:03:34;;;;;;;30.23;20.58;;;11.90;99.90;;;;;;5013166;28;20038;-60
2023/05/25 02:06:00;;;;;;;33.60;22.63;;;12.00;99.90;;;;;;5012551;28;20037;-60
2023/05/25 02:08:25;;;;;;;36.92;23.83;;;11.90;99.90;;;;;;5012773;28;20026;-61
2023/05/25 02:10:51;;;;;;;34.50;21.70;;;12.00;99.90;;;;;;5012274;28;20103;-61
2023/05/25 02:13:17;;;;;;;25.90;21.40;;;12.00;99.90;;;;;;5012789;28;20026;-60
2023/05/25 02:15:42;;;;;;;35.78;23.10;;;12.00;99.90;;;;;;5012811;28;20021;-61
2023/05/25 02:18:08;;;;;;;30.45;21.23;;;12.00;99.90;;;;;;5013156;28;20053;-61
2023/05/25 02:20:35;;;;;;;35.05;23.40;;;12.00;99.90;;;;;;5013148;28;20519;-60
2023/05/25 02:23:01;;;;;;;37.72;21.50;;;12.00;99.90;;;;;;5012778;28;20046;-61
2023/05/25 02:25:27;;;;;;;34.28;23.42;;;11.90;99.90;;;;;;5013181;28;20109;-61
2023/05/25 02:27:52;;;;;;;37.65;21.35;;;12.00;99.90;;;;;;5012673;28;20481;-61
2023/05/25 02:30:18;;;;;;;29.67;20.17;;;11.90;99.90;;;;;;5013060;28;20032;-61
2023/05/25 02:32:44;;;;;;;37.28;21.00;;;12.00;99.90;;;;;;5012672;28;20018;-61
2023/05/25 02:35:09;;;;;;;32.03;20.65;;;11.90;99.90;;;;;;5012849;28;20454;-61
2023/05/25 02:37:35;;;;;;;30.02;21.77;;;11.90;99.90;;;;;;5011270;28;20050;-61
2023/05/25 02:40:00;;;;;;;34.90;22.65;;;12.00;99.90;;;;;;5011435;28;20037;-61
2023/05/25 02:42:26;;;;;;;29.42;20.95;;;12.00;99.90;;;;;;5012773;28;20462;-61
2023/05/25 02:44:52;;;;;;;29.27;20.75;;;12.00;99.90;;;;;;5012515;28;20030;-61
2023/05/25 02:47:18;;;;;;;26.13;19.85;;;12.00;99.90;;;;;;5012470;28;20432;-61
2023/05/25 02:49:46;;;;;;;36.42;21.35;;;12.00;99.90;;;;;;5012455;28;20080;-61
2023/05/25 02:52:12;;;;;;;31.40;21.95;;;12.00;99.90;;;;;;5012400;28;20076;-61
2023/05/25 02:54:38;;;;;;;33.80;20.23;;;12.00;99.90;;;;;;5013115;28;20022;-61
2023/05/25 02:57:04;;;;;;;29.58;19.48;;;12.00;99.90;;;;;;5012332;28;20122;-61
2023/05/25 02:59:30;;;;;;;36.85;20.92;;;12.00;99.90;;;;;;5012875;28;20105;-61
2023/05/25 03:01:57;;;;;;;28.75;19.85;;;12.00;99.90;;;;;;5012910;28;20370;-60
2023/05/25 03:04:22;;;;;;;29.58;18.13;;;12.00;99.90;;;;;;5012748;28;20077;-60
2023/05/25 03:06:48;;;;;;;30.15;19.00;;;11.90;99.90;;;;;;5011946;28;20026;-61
2023/05/25 03:09:13;;;;;;;37.25;20.35;;;11.90;99.90;;;;;;5012196;28;20080;-60
2023/05/25 03:11:39;;;;;;;30.13;19.60;;;11.90;99.90;;;;;;5011972;28;20076;-61
2023/05/25 03:14:05;;;;;;;31.80;20.02;;;12.00;99.90;;;;;;5010816;28;20104;-61
2023/05/25 03:16:34;;;;;;;24.98;18.13;;;11.90;99.80;;;;;;5012065;28;20073;-60
2023/05/25 03:19:04;;;;;;;40.83;18.95;;;11.90;99.90;;;;;;5012149;28;20045;-60
2023/05/25 03:21:30;;;;;;;26.48;18.05;;;11.90;99.00;;;;;;5012073;28;20413;-60
2023/05/25 03:23:56;;;;;;;25.70;16.77;;;11.80;98.10;;;;;;5012148;28;20362;-60
2023/05/25 03:26:24;;;;;;;27.67;16.48;;;11.80;98.80;;;;;;5012043;28;20033;-60
2023/05/25 03:28:50;;;;;;;27.20;15.95;;;11.80;98.00;;;;;;5011782;28;20116;-61
2023/05/25 03:31:16;;;;;;;24.83;16.02;;;11.70;97.40;;;;;;5012037;28;20564;-60
2023/05/25 03:33:42;;;;;;;20.55;14.32;;;11.70;97.20;;;;;;5011798;28;20109;-60
2023/05/25 03:36:08;;;;;;;29.55;16.40;;;11.70;96.60;;;;;;5011526;28;20118;-60
2023/05/25 03:38:36;;;;;;;26.17;14.90;;;11.60;97.30;;;;;;5011794;28;20051;-61
2023/05/25 03:41:01;;;;;;;22.33;15.40;;;11.60;97.90;;;;;;5011445;28;20032;-60
2023/05/25 03:43:27;;;;;;;28.33;16.20;;;11.60;98.00;;;;;;5011453;28;20379;-60
2023/05/25 03:45:53;;;;;;;23.95;14.90;;;11.60;97.50;;;;;;5010395;28;20117;-61
2023/05/25 03:48:18;;;;;;;32.25;15.20;;;11.60;98.80;;;;;;5011620;28;20113;-61
2023/05/25 03:50:44;;;;;;;27.10;15.73;;;11.60;97.70;;;;;;5011137;28;20030;-60
2023/05/25 03:53:10;;;;;;;23.90;14.43;;;11.70;97.80;;;;;;5011578;28;20026;-61
2023/05/25 03:55:35;;;;;;;39.10;16.20;;;11.70;96.90;;;;;;5011524;28;20073;-61
2023/05/25 03:58:01;;;;;;;21.42;13.75;;;11.70;96.60;;;;;;5011408;28;20033;-61
2023/05/25 04:00:27;;;;;;;26.80;15.07;;;11.70;96.80;;;;;;5011668;28;20048;-60
2023/05/25 04:02:52;;;;;;;22.75;14.27;;;11.70;95.70;;;;;;5011731;28;20034;-61
2023/05/25 04:05:19;;;;;;;25.10;14.73;;;11.80;96.10;;;;;;5011625;28;20026;-61
2023/05/25 04:07:45;;;;;;;21.83;13.18;;;11.80;96.40;;;;;;5011343;28;20101;-60
2023/05/25 04:10:11;;;;;;;31.35;14.05;;;11.80;96.40;;;;;;5011482;28;20125;-61
2023/05/25 04:12:37;;;;;;;23.38;13.65;;;11.80;95.10;;;;;;5011442;28;20077;-61
2023/05/25 04:15:04;;;;;;;22.98;13.68;;;11.80;95.60;;;;;;5011333;28;20014;-60
2023/05/25 04:17:30;;;;;;;24.00;13.30;;;11.90;95.20;;;;;;5011416;28;20034;-61
2023/05/25 04:19:55;;;;;;;19.95;12.80;;;11.80;95.00;;;;;;5010964;28;20373;-60
2023/05/25 04:22:21;;;;;;;28.77;13.93;;;11.80;95.50;;;;;;5010594;28;20038;-60
2023/05/25 04:24:47;;;;;;;30.20;14.02;;;11.80;95.60;;;;;;5010465;28;20109;-60
2023/05/25 04:27:13;;;;;;;24.70;13.82;;;11.80;96.40;;;;;;4993218;28;20599;-60
2023/05/25 04:29:40;;;;;;;28.08;15.65;;;11.90;96.90;;;;;;5009883;28;20121;-60
2023/05/25 04:32:08;;;;;;;24.60;14.73;;;11.90;97.10;;;;;;5010760;28;20014;-61
2023/05/25 04:34:35;;;;;;;29.65;15.43;;;11.90;97.70;;;;;;5012126;28;20365;-60
2023/05/25 04:37:04;;;;;;;24.02;13.68;;;12.00;98.10;;;;;;5014894;28;20070;-61
2023/05/25 04:39:31;;;;;;;21.70;14.50;;;12.00;97.40;;;;;;5014615;28;20026;-61
2023/05/25 04:41:57;;;;;;;22.85;14.10;;;12.10;97.60;;;;;;5014232;28;20079;-61
2023/05/25 04:44:24;;;;;;;29.13;13.77;;;12.10;95.60;;;;;;5014471;28;20415;-61
2023/05/25 04:46:51;;;;;;;28.55;14.88;;;12.20;96.30;;;;;;5014579;28;20486;-60
2023/05/25 04:49:17;;;;;;;18.02;12.80;;;12.20;95.80;;;;;;5014091;28;20050;-60
2023/05/25 04:51:43;;;;;;;27.20;14.35;;;12.20;94.20;;;;;;5014180;28;20096;-60
2023/05/25 04:54:09;;;;;;;29.42;13.98;;;12.30;93.60;;;;;;5014223;28;20068;-61
2023/05/25 04:56:34;;;;;;;19.27;12.65;;;12.30;93.60;;;;;;5014516;28;20033;-60
2023/05/25 04:59:00;;;;;;;24.17;13.75;;;12.30;94.00;;;;;;5013865;28;20034;-60
2023/05/25 05:01:26;;;;;;;20.23;12.88;;;12.30;92.40;;;;;;5013327;28;20022;-59
2023/05/25 05:04:00;;;;;;;28.00;13.60;;;12.30;93.10;;;;;;5013987;28;20014;-60
2023/05/25 05:06:26;;;;;;;26.67;13.43;;;12.30;93.40;;;;;;5013052;28;20029;-60
2023/05/25 05:08:52;;;;;;;17.95;12.70;;;12.30;93.30;;;;;;5012662;28;20026;-60
2023/05/25 05:11:17;;;;;;;22.65;13.35;;;12.20;92.90;;;;;;5012922;28;20032;-61
2023/05/25 05:13:43;;;;;;;26.52;13.15;;;12.30;93.20;;;;;;5012485;28;20108;-60
2023/05/25 05:16:09;;;;;;;24.48;12.27;;;12.40;91.70;;;;;;5012927;28;20093;-60
2023/05/25 05:18:35;;;;;;;22.42;11.90;;;12.40;91.80;;;;;;5013075;28;20033;-60
2023/05/25 05:21:00;;;;;;;17.60;10.82;;;12.40;90.40;;;;;;5013282;28;20029;-61
2023/05/25 05:23:26;;;;;;;21.15;11.57;;;12.50;89.50;;;;;;5012711;28;20022;-61
2023/05/25 05:25:51;;;;;;;19.52;12.48;;;12.50;89.80;;;;;;5012622;28;20037;-61
2023/05/25 05:28:17;;;;;;;18.38;11.95;;;12.50;87.00;;;;;;5013906;28;20076;-61
2023/05/25 05:30:45;;;;;;;19.67;11.65;;;12.60;88.60;;;;;;5012887;28;20468;-60
2023/05/25 05:33:11;;;;;;;24.42;13.45;;;12.50;86.50;;;;;;5011255;28;20495;-61
2023/05/25 05:35:36;;;;;;;19.90;11.43;;;12.50;86.90;;;;;;5013063;28;20022;-61
2023/05/25 05:38:02;;;;;;;17.45;11.27;;;12.50;88.60;;;;;;5012268;28;20087;-61
2023/05/25 05:40:27;;;;;;;22.08;11.93;;;12.50;88.70;;;;;;5012152;28;20058;-61
2023/05/25 05:42:53;;;;;;;22.00;12.18;;;12.50;85.70;;;;;;5012113;28;20030;-61
2023/05/25 05:45:19;;;;;;;23.73;13.50;;;12.60;89.80;;;;;;5011784;28;20021;-61
2023/05/25 05:47:45;;;;;;;16.42;11.93;;;12.60;84.10;;;;;;5011176;28;20108;-60
2023/05/25 05:50:10;;;;;;;27.42;12.82;;;12.60;83.50;;;;;;5011627;28;20045;-61
2023/05/25 05:52:36;;;;;;;19.00;11.57;;;12.70;87.80;;;;;;5011895;28;20022;-61
2023/05/25 05:55:02;;;;;;;21.77;12.73;;;12.70;83.80;;;;;;5011698;28;20113;-61
2023/05/25 05:57:28;;;;;;;20.35;11.20;;;12.80;81.80;;;;;;5012003;28;20375;-61
2023/05/25 05:59:53;;;;;;;20.20;12.48;;;13.00;76.10;;;;;;5011870;28;20439;-60
2023/05/25 06:02:19;;;;;;;17.35;11.70;;;13.00;72.30;;;;;;5012107;28;20022;-60
2023/05/25 06:04:44;;;;;;;24.40;13.45;;;12.90;74.20;;;;;;5010803;28;20022;-61
2023/05/25 06:07:10;;;;;;;29.05;14.88;;;12.90;78.50;;;;;;5011971;28;20053;-61
2023/05/25 06:09:36;;;;;;;21.65;12.95;;;12.90;75.20;;;;;;5010657;28;20030;-61
2023/05/25 06:12:03;;;;;;;21.83;12.93;;;12.90;77.70;;;;;;5011832;28;20050;-61
2023/05/25 06:14:28;;;;;;;22.65;13.07;;;13.00;75.60;;;;;;5011242;28;20084;-61
2023/05/25 06:16:54;;;;;;;27.90;13.98;;;13.00;75.50;;;;;;5011401;28;20025;-61
2023/05/25 06:19:20;;;;;;;19.58;12.77;;;13.10;76.50;;;;;;5011526;28;20022;-61
2023/05/25 06:21:45;;;;;;;23.40;13.95;;;13.10;81.10;;;;;;5011456;28;20018;-60
2023/05/25 06:24:11;;;;;;;25.25;13.10;;;13.10;80.90;;;;;;5011572;28;20497;-61
2023/05/25 06:26:36;;;;;;;21.98;12.93;;;13.30;80.60;;;;;;5011527;28;20097;-61
2023/05/25 06:29:02;;;;;;;24.05;13.63;;;13.40;77.80;;;;;;5011336;28;20117;-61
2023/05/25 06:31:28;;;;;;;25.58;15.77;;;13.50;65.40;;;;;;5009978;28;20022;-61
2023/05/25 06:33:54;;;;;;;24.15;13.32;;;13.40;70.70;;;;;;5009747;28;20033;-61
2023/05/25 06:36:20;;;;;;;25.88;15.05;;;13.40;67.30;;;;;;5011082;28;20025;-61
2023/05/25 06:38:46;;;;;;;24.25;14.20;;;13.60;75.80;;;;;;5011282;28;20125;-61
2023/05/25 06:41:13;;;;;;;21.42;13.65;;;13.60;67.60;;;;;;5011288;28;20118;-61
2023/05/25 06:43:41;;;;;;;22.55;12.77;;;13.70;65.20;;;;;;5011283;28;20473;-61
2023/05/25 06:46:08;;;;;;;23.23;12.68;;;13.80;53.70;;;;;;5011425;28;20540;-61
2023/05/25 06:48:34;;;;;;;28.23;14.18;;;14.00;54.40;;;;;;5011204;28;20058;-61
2023/05/25 06:50:59;;;;;;;26.30;14.38;;;14.20;44.00;;;;;;5011206;28;20064;-61
2023/05/25 06:53:25;;;;;;;24.58;14.65;;;14.30;46.90;;;;;;5010943;28;20075;-61
2023/05/25 06:56:00;;;;;;;22.70;13.52;;;14.50;29.90;;;;;;5009489;28;20033;-60
2023/05/25 06:58:26;;;;;;;27.83;12.65;;;14.70;34.00;;;;;;5010690;28;20441;-61
2023/05/25 07:00:51;;;;;;;21.40;13.45;;;14.60;23.80;;;;;;5010782;28;20029;-60
2023/05/25 07:03:17;;;;;;;29.13;14.02;;;14.60;24.90;;;;;;5010873;28;20130;-61
2023/05/25 07:05:43;;;;;;;27.90;14.52;;;14.50;20.40;;;;;;5010543;28;20029;-61
2023/05/25 07:08:09;;;;;;;20.00;12.57;;;14.70;14.40;;;;;;5010657;28;20022;-60
2023/05/25 07:10:34;;;;;;;19.58;12.73;;;14.80;28.00;;;;;;5010756;28;20014;-61
2023/05/25 07:13:00;;;;;;;21.77;13.35;;;14.90;1.00;;;;;;5010765;28;20022;-60
2023/05/25 07:15:25;;;;;;;17.75;13.02;;;15.10;6.70;;;;;;5009473;28;20375;-60
2023/05/25 07:17:51;;;;;;;21.52;12.93;;;15.00;10.90;;;;;;5010141;28;20397;-60
2023/05/25 07:20:17;;;;;;;22.00;13.55;;;15.00;4.60;;;;;;5010422;28;20026;-60
2023/05/25 07:22:46;;;;;;;21.00;13.63;;;15.00;12.70;;;;;;5010326;28;20029;-60
2023/05/25 07:25:13;;;;;;;20.40;13.75;;;15.00;1.00;;;;;;5010355;28;20018;-60
2023/05/25 07:27:38;;;;;;;27.45;15.88;;;15.00;10.10;;;;;;5010360;28;20026;-60
2023/05/25 07:30:05;;;;;;;21.98;13.68;;;15.00;1.00;;;;;;5010444;28;20022;-61
2023/05/25 07:32:34;;;;;;;19.45;13.85;;;15.20;10.40;;;;;;5009194;28;20022;-61
2023/05/25 07:35:00;;;;;;;18.98;14.02;;;15.20;4.80;;;;;;5010364;28;20369;-61
2023/05/25 07:37:25;;;;;;;21.20;13.73;;;15.20;1.00;;;;;;5010232;28;20436;-61
2023/05/25 07:39:51;;;;;;;22.30;13.98;;;15.20;1.00;;;;;;5010155;28;20033;-61
2023/05/25 07:42:20;;;;;;;23.83;13.20;;;15.30;1.00;;;;;;5010506;28;20439;-61
2023/05/25 07:44:47;;;;;;;31.17;14.13;;;15.40;1.00;;;;;;5010269;28;20034;-61
2023/05/25 07:47:13;;;;;;;26.55;13.98;;;15.50;1.00;;;;;;5010420;28;20041;-61
2023/05/25 07:49:40;;;;;;;19.58;12.27;;;15.50;1.00;;;;;;5010955;28;20022;-61
2023/05/25 07:52:06;;;;;;;16.27;12.38;;;15.70;1.00;;;;;;5009337;28;20072;-61
2023/05/25 07:54:31;;;;;;;24.38;14.13;;;15.70;1.00;;;;;;5010781;28;20022;-61
2023/05/25 07:56:57;;;;;;;17.10;13.15;;;15.80;1.00;;;;;;5010452;28;20026;-61
2023/05/25 07:59:23;;;;;;;33.92;17.83;;;16.00;1.00;;;;;;5010424;28;20132;-61
2023/05/25 08:01:58;;;;;;;21.27;14.02;;;15.90;1.00;;;;;;5009914;28;20133;-61
2023/05/25 08:04:23;;;;;;;22.17;13.88;;;16.00;1.00;;;;;;5010334;28;20022;-61
2023/05/25 08:06:49;;;;;;;19.13;12.32;;;16.20;1.00;;;;;;5010412;28;20458;-61
2023/05/25 08:09:14;;;;;;;20.25;13.77;;;16.40;1.00;;;;;;5010346;28;20030;-61
2023/05/25 08:11:40;;;;;;;16.02;12.60;;;16.40;1.00;;;;;;5013423;28;20030;-61
2023/05/25 08:14:06;;;;;;;16.65;12.20;;;16.60;1.00;;;;;;5013909;28;20024;-59
2023/05/25 08:16:31;;;;;;;19.95;11.68;;;16.70;1.00;;;;;;5013798;28;20533;-59
2023/05/25 08:18:58;;;;;;;24.45;13.68;;;16.70;1.00;;;;;;5013969;28;20022;-58
2023/05/25 08:21:24;;;;;;;27.38;13.57;;;16.70;1.00;;;;;;5013907;28;20029;-58
2023/05/25 08:23:50;;;;;;;19.10;13.52;;;16.80;1.00;;;;;;5013976;28;20033;-58
2023/05/25 08:26:16;;;;;;;25.33;13.23;;;16.80;99.90;;;;;;5013949;28;20030;-58
2023/05/25 08:28:41;;;;;;;18.02;13.85;;;16.90;1.00;;;;;;5013894;28;20044;-58
2023/05/25 08:31:07;;;;;;;19.08;12.52;;;17.30;1.00;;;;;;5012435;28;20022;-58
2023/05/25 08:33:33;;;;;;;20.85;13.10;;;17.60;99.90;;;;;;5013888;28;20022;-58
2023/05/25 08:35:58;;;;;;;20.90;14.93;;;17.80;99.90;;;;;;5012525;28;20100;-58
2023/05/25 08:38:24;;;;;;;20.23;14.52;;;17.70;99.90;;;;;;5013275;28;20045;-58
2023/05/25 08:41:04;;;;;;;18.17;12.50;;;17.70;99.90;;;;;;5013761;28;20172;-58
2023/05/25 08:43:31;;;;;;;18.60;13.00;;;18.00;99.90;;;;;;5013535;28;20040;-59
2023/05/25 08:46:05;;;;;;;21.75;13.02;;;17.90;99.90;;;;;;5013128;28;20021;-59
2023/05/25 08:48:33;;;;;;;20.83;13.00;;;17.90;99.90;;;;;;5013025;28;20034;-58
2023/05/25 08:51:05;;;;;;;17.65;12.07;;;17.70;1.00;;;;;;5013434;28;20037;-58
2023/05/25 08:53:35;;;;;;;15.65;12.43;;;17.90;99.90;;;;;;5012840;28;20032;-59
2023/05/25 08:56:09;;;;;;;19.30;13.00;;;18.10;1.00;;;;;;5012947;28;20045;-59
2023/05/25 08:58:42;;;;;;;18.73;12.70;;;18.10;99.90;;;;;;5012496;28;20029;-58
2023/05/25 09:01:10;;;;;;;15.50;11.60;;;18.00;1.00;;;;;;5010815;28;20108;-62
2023/05/25 09:03:38;;;;;;;18.30;12.00;;;18.10;1.00;;;;;;5011292;28;20018;-59
2023/05/25 09:06:03;;;;;;;18.52;12.85;;;18.30;99.90;;;;;;5013549;28;20025;-59
2023/05/25 09:08:30;;;;;;;17.63;12.15;;;18.00;99.90;;;;;;5012806;28;20045;-59
2023/05/25 09:10:56;;;;;;;16.10;11.57;;;17.90;1.00;;;;;;5012563;28;20393;-59
2023/05/25 09:13:22;;;;;;;16.52;11.35;;;18.40;1.00;;;;;;5012184;28;20109;-59
2023/05/25 09:15:49;;;;;;;17.20;11.90;;;18.50;99.90;;;;;;5012040;28;20101;-59
2023/05/25 09:18:14;;;;;;;19.90;13.07;;;18.40;76.50;;;;;;5012373;28;20100;-59
2023/05/25 09:20:40;;;;;;;25.77;12.75;;;18.30;99.90;;;;;;5012234;28;20025;-59
2023/05/25 09:23:07;;;;;;;15.45;11.30;;;18.30;99.90;;;;;;5012793;28;20547;-59
2023/05/25 09:25:34;;;;;;;19.83;11.80;;;18.60;1.00;;;;;;5012647;28;20033;-58
2023/05/25 09:28:00;;;;;;;18.52;12.43;;;18.60;99.90;;;;;;5012381;28;20026;-58
2023/05/25 09:30:31;;;;;;;22.02;14.68;;;18.40;1.00;;;;;;5012846;28;20054;-59
2023/05/25 09:33:08;;;;;;;20.67;13.68;;;17.90;99.90;;;;;;5012761;28;20028;-59
2023/05/25 09:35:34;;;;;;;19.63;10.55;;;18.10;99.90;;;;;;5012768;28;20033;-59
2023/05/25 09:38:00;;;;;;;20.58;11.40;;;18.30;99.90;;;;;;5012397;28;20058;-59
2023/05/25 09:40:26;;;;;;;17.58;9.60;;;18.70;1.00;;;;;;5012645;28;20478;-59
2023/05/25 09:42:51;;;;;;;20.20;10.70;;;19.00;1.00;;;;;;5013027;28;20025;-59
2023/05/25 09:45:17;;;;;;;22.20;10.10;;;19.10;99.90;;;;;;5013215;28;20104;-59
2023/05/25 09:47:43;;;;;;;21.63;12.43;;;19.10;37.10;;;;;;5012873;28;20053;-59
2023/05/25 09:50:10;;;;;;;21.38;11.35;;;18.80;1.00;;;;;;5012742;28;20040;-59
2023/05/25 09:52:36;;;;;;;19.65;10.15;;;18.80;41.00;;;;;;5012417;28;20022;-59
2023/05/25 09:55:02;;;;;;;17.50;11.05;;;19.30;1.00;;;;;;5012690;28;20088;-59
2023/05/25 09:57:28;;;;;;;17.38;11.60;;;19.50;99.90;;;;;;5013043;28;20056;-58
2023/05/25 09:59:54;;;;;;;19.05;13.00;;;19.30;85.10;;;;;;5012552;28;20057;-59
2023/05/25 10:02:20;;;;;;;20.27;10.35;;;19.40;1.00;;;;;;5012999;28;20018;-59
2023/05/25 10:04:46;;;;;;;24.75;10.70;;;19.60;1.00;;;;;;5012553;28;20590;-59
2023/05/25 10:07:12;;;;;;;15.48;10.00;;;19.90;1.00;;;;;;5012950;28;20068;-59
2023/05/25 10:09:42;;;;;;;20.92;10.73;;;19.70;79.50;;;;;;5012045;28;20037;-59
2023/05/25 10:12:09;;;;;;;16.00;9.43;;;19.80;99.90;;;;;;5011870;28;20014;-59
2023/05/25 10:14:37;;;;;;;12.02;9.15;;;19.90;1.00;;;;;;5012048;28;20385;-59
2023/05/25 10:17:05;;;;;;;14.30;9.85;;;19.90;99.90;;;;;;5011875;28;20354;-59
2023/05/25 10:19:45;;;;;;;16.42;8.60;;;19.90;99.90;;;;;;5011779;28;20021;-59
2023/05/25 10:22:23;;;;;;;16.85;9.52;;;20.20;99.90;;;;;;5011695;28;20022;-59
2023/05/25 10:25:01;;;;;;;20.27;9.68;;;20.30;36.00;;;;;;5011765;28;20118;-58
2023/05/25 10:27:35;;;;;;;20.38;9.85;;;20.20;99.90;;;;;;5011572;28;20096;-59
2023/05/25 10:30:02;;;;;;;16.02;9.45;;;20.50;1.00;;;;;;5011286;28;20436;-59
2023/05/25 10:32:29;;;;;;;17.17;9.05;;;20.90;99.90;;;;;;5011022;28;20029;-58
2023/05/25 10:34:57;;;;;;;16.92;8.73;;;21.10;46.20;;;;;;5011364;28;20101;-59
2023/05/25 10:37:25;;;;;;;13.82;8.18;;;21.20;99.90;;;;;;5011591;28;20129;-59
2023/05/25 10:39:57;;;;;;;24.95;9.70;;;21.80;99.90;;;;;;5011644;28;20402;-58
2023/05/25 10:42:22;;;;;;;17.23;9.75;;;21.70;99.90;;;;;;5011610;28;20108;-59
2023/05/25 10:44:49;;;;;;;13.40;9.13;;;21.50;1.00;;;;;;5011204;28;20540;-59
2023/05/25 10:47:16;;;;;;;16.20;9.40;;;21.50;99.90;;;;;;5011219;28;20406;-59
2023/05/25 10:49:52;;;;;;;11.25;7.88;;;21.60;1.00;;;;;;5011370;28;20018;-59
2023/05/25 10:52:19;;;;;;;15.88;8.75;;;21.40;99.90;;;;;;5011449;28;20018;-59
2023/05/25 10:54:46;;;;;;;14.52;8.10;;;21.60;1.00;;;;;;5011801;28;20068;-59
2023/05/25 10:57:20;;;;;;;16.88;9.10;;;21.60;54.20;;;;;;5011431;28;20117;-59
2023/05/25 10:59:51;;;;;;;16.60;9.13;;;21.30;1.00;;;;;;5010846;28;20065;-59
2023/05/25 11:02:22;;;;;;;18.13;9.65;;;21.50;1.00;;;;;;5011731;28;20025;-59
2023/05/25 11:04:48;;;;;;;22.27;9.77;;;21.30;99.90;;;;;;5009638;28;20095;-58
2023/05/25 11:07:15;;;;;;;25.75;9.90;;;21.20;1.00;;;;;;5011111;28;20483;-59
2023/05/25 11:09:43;;;;;;;13.38;8.68;;;21.30;1.00;;;;;;5011008;28;20018;-59
2023/05/25 11:12:19;;;;;;;12.88;8.10;;;21.70;1.00;;;;;;5011303;28;20112;-59
2023/05/25 11:15:14;;;;;;;16.70;8.20;;;22.30;99.90;;;;;;5010957;28;20033;-59
2023/05/25 11:17:57;;;;;;;13.13;8.30;;;22.50;99.90;;;;;;5011010;28;20113;-59
2023/05/25 11:20:26;;;;;;;12.68;8.82;;;22.80;99.90;;;;;;5010902;28;20076;-59
2023/05/25 11:22:52;;;;;;;17.67;7.88;;;22.90;1.00;;;;;;5010675;28;20580;-59
2023/05/25 11:25:41;;;;;;;12.23;7.80;;;22.90;99.90;;;;;;5010865;28;20113;-59
2023/05/25 11:28:09;;;;;;;16.52;7.00;;;22.80;1.00;;;;;;5010704;28;20084;-59
2023/05/25 11:30:35;;;;;;;18.77;6.43;;;22.50;1.00;;;;;;5010772;28;20465;-59
2023/05/25 11:33:06;;;;;;;12.52;7.18;;;22.70;99.90;;;;;;5010743;28;20033;-59
2023/05/25 11:35:32;;;;;;;9.85;6.13;;;22.70;99.90;;;;;;5010756;28;20022;-59
2023/05/25 11:37:59;;;;;;;12.43;7.35;;;22.80;1.00;;;;;;5010386;28;20108;-58
2023/05/25 11:40:28;;;;;;;18.27;9.38;;;23.00;99.90;;;;;;5010573;28;20026;-59
2023/05/25 11:42:55;;;;;;;16.27;8.43;;;23.50;1.00;;;;;;5010562;28;20086;-59
2023/05/25 11:45:22;;;;;;;15.18;7.88;;;23.60;99.90;;;;;;5009626;28;20022;-59
2023/05/25 11:47:47;;;;;;;11.65;7.85;;;23.80;99.90;;;;;;5010672;28;20052;-59
2023/05/25 11:50:16;;;;;;;13.55;7.88;;;24.10;99.90;;;;;;5010731;28;20022;-59
2023/05/25 11:52:42;;;;;;;18.77;8.65;;;23.90;99.90;;;;;;5010322;28;20374;-59
2023/05/25 11:55:13;;;;;;;12.20;7.10;;;23.90;99.90;;;;;;5010713;28;20026;-59
2023/05/25 11:57:39;;;;;;;13.05;6.50;;;24.00;99.90;;;;;;5010916;28;20480;-59
2023/05/25 12:00:06;;;;;;;10.73;7.35;;;24.10;99.90;;;;;;5009520;28;20057;-59
2023/05/25 12:02:39;;;;;;;18.35;7.10;;;24.10;99.90;;;;;;5010473;28;20088;-59
2023/05/25 12:05:08;;;;;;;;;;;24.30;97.80;;;;;;5010694;28;20081;-59
2023/05/25 12:07:34;;;;;;;8.68;5.72;;;24.80;1.00;;;;;;5010422;28;20261;-59
2023/05/25 12:10:08;;;;;;;10.82;6.15;;;25.40;1.00;;;;;;5010244;28;20022;-59
2023/05/25 12:12:45;;;;;;;8.77;4.53;;;26.10;1.00;;;;;;5010306;28;20026;-59
2023/05/25 12:15:16;;;;;;;9.13;5.70;;;26.90;1.00;;;;;;5010535;28;20028;-59
2023/05/25 12:17:43;;;;;;;7.80;4.93;;;27.10;1.00;;;;;;5010139;28;20045;-59
2023/05/25 12:20:11;;;;;;;10.32;5.85;;;27.40;1.00;;;;;;5010610;28;20436;-59
2023/05/25 12:22:40;;;;;;;14.70;6.40;;;27.80;1.00;;;;;;5008967;28;20124;-60
2023/05/25 12:25:09;;;;;;;8.52;5.07;;;28.20;1.00;;;;;;5010283;28;20026;-60
2023/05/25 12:27:35;;;;;;;12.45;7.80;;;28.30;1.00;;;;;;5008904;28;20444;-60
2023/05/25 12:30:01;;;;;;;9.45;4.95;;;28.70;99.90;;;;;;5010039;28;20026;-60
2023/05/25 12:32:27;;;;;;;10.60;5.10;;;28.70;99.90;;;;;;5010344;28;20106;-60